Whitehills, United Kingdom
Current Conditions -  °F | °C
As of 2:50 AM on Wednesday 26 Nov 2014 (Local Time) from EGQS Reporting Station
Clear Clear  
Wind Chill: 31°   Ceiling: Unl
Heat Index: 37°   Visibility: 6mi
Dew Point: 36°   Wind: 8mph
Humidity: 93%   Direction: 150°SSE
Pressure: 30.03"   Gusts: NA
Location:  57.67°N, 2.58°W
Report Text: EGQS 260250Z 15007KT CAVOK 03/02 Q1017 BLU NOSIG
Loading
Personal Weather Stations






























Interactive Weather Map New forecast layout! Learn more

10-Day Weather Forecast

Advertisements
Track Severe Weather on mobile